sensor_id;sensor_type;location;lat;lon;timestamp;temperature;humidity
22678;DHT22;26259;50.214;18.620;2023-04-25T00:02:12;10.50;99.90
22678;DHT22;26259;50.214;18.620;2023-04-25T00:04:38;10.50;99.90
22678;DHT22;26259;50.214;18.620;2023-04-25T00:07:04;10.50;99.90
22678;DHT22;26259;50.214;18.620;2023-04-25T00:09:30;10.40;99.90
22678;DHT22;26259;50.214;18.620;2023-04-25T00:11:55;10.40;99.90
22678;DHT22;26259;50.214;18.620;2023-04-25T00:14:21;10.40;99.90
22678;DHT22;26259;50.214;18.620;2023-04-25T00:16:48;10.40;99.90
22678;DHT22;26259;50.214;18.620;2023-04-25T00:19:13;10.30;99.90
22678;DHT22;26259;50.214;18.620;2023-04-25T00:21:39;10.30;99.90
22678;DHT22;26259;50.214;18.620;2023-04-25T00:24:08;10.30;99.90
22678;DHT22;26259;50.214;18.620;2023-04-25T00:26:34;10.30;99.90
22678;DHT22;26259;50.214;18.620;2023-04-25T00:29:01;10.20;99.90
22678;DHT22;26259;50.214;18.620;2023-04-25T00:31:27;10.20;99.90
22678;DHT22;26259;50.214;18.620;2023-04-25T00:33:52;10.20;99.90
22678;DHT22;26259;50.214;18.620;2023-04-25T00:36:18;10.10;99.90
22678;DHT22;26259;50.214;18.620;2023-04-25T00:38:44;10.20;99.90
22678;DHT22;26259;50.214;18.620;2023-04-25T00:41:10;10.10;99.90
22678;DHT22;26259;50.214;18.620;2023-04-25T00:43:36;10.10;99.90
22678;DHT22;26259;50.214;18.620;2023-04-25T00:46:02;10.10;99.90
22678;DHT22;26259;50.214;18.620;2023-04-25T00:48:28;10.10;99.90
22678;DHT22;26259;50.214;18.620;2023-04-25T00:50:55;10.10;99.90
22678;DHT22;26259;50.214;18.620;2023-04-25T00:53:22;10.00;99.90
22678;DHT22;26259;50.214;18.620;2023-04-25T00:55:49;10.00;99.90
22678;DHT22;26259;50.214;18.620;2023-04-25T00:58:17;10.00;99.90
22678;DHT22;26259;50.214;18.620;2023-04-25T01:00:44;9.90;99.90
22678;DHT22;26259;50.214;18.620;2023-04-25T01:03:10;9.90;99.90
22678;DHT22;26259;50.214;18.620;2023-04-25T01:05:36;9.90;99.90
22678;DHT22;26259;50.214;18.620;2023-04-25T01:08:01;9.90;99.90
22678;DHT22;26259;50.214;18.620;2023-04-25T01:10:27;9.90;99.90
22678;DHT22;26259;50.214;18.620;2023-04-25T01:12:53;9.90;99.90
22678;DHT22;26259;50.214;18.620;2023-04-25T01:15:18;9.80;99.90
22678;DHT22;26259;50.214;18.620;2023-04-25T01:17:44;9.80;99.90
22678;DHT22;26259;50.214;18.620;2023-04-25T01:20:11;9.80;99.90
22678;DHT22;26259;50.214;18.620;2023-04-25T01:22:37;9.70;99.90
22678;DHT22;26259;50.214;18.620;2023-04-25T01:25:03;9.70;99.90
22678;DHT22;26259;50.214;18.620;2023-04-25T01:27:30;9.70;99.90
22678;DHT22;26259;50.214;18.620;2023-04-25T01:29:56;9.70;99.90
22678;DHT22;26259;50.214;18.620;2023-04-25T01:32:23;9.60;99.90
22678;DHT22;26259;50.214;18.620;2023-04-25T01:34:48;9.60;99.90
22678;DHT22;26259;50.214;18.620;2023-04-25T01:37:14;9.70;99.90
22678;DHT22;26259;50.214;18.620;2023-04-25T01:39:40;9.60;99.90
22678;DHT22;26259;50.214;18.620;2023-04-25T01:42:06;9.60;99.90
22678;DHT22;26259;50.214;18.620;2023-04-25T01:44:31;9.60;99.90
22678;DHT22;26259;50.214;18.620;2023-04-25T01:46:57;9.50;99.90
22678;DHT22;26259;50.214;18.620;2023-04-25T01:49:23;9.50;99.90
22678;DHT22;26259;50.214;18.620;2023-04-25T01:51:49;9.50;99.90
22678;DHT22;26259;50.214;18.620;2023-04-25T01:54:14;9.40;99.90
22678;DHT22;26259;50.214;18.620;2023-04-25T01:56:40;9.40;99.90
22678;DHT22;26259;50.214;18.620;2023-04-25T01:59:06;9.40;99.90
22678;DHT22;26259;50.214;18.620;2023-04-25T02:01:32;9.40;99.90
22678;DHT22;26259;50.214;18.620;2023-04-25T02:03:57;9.40;99.90
22678;DHT22;26259;50.214;18.620;2023-04-25T02:06:23;9.30;99.90
22678;DHT22;26259;50.214;18.620;2023-04-25T02:08:49;9.30;99.90
22678;DHT22;26259;50.214;18.620;2023-04-25T02:11:14;9.30;99.90
22678;DHT22;26259;50.214;18.620;2023-04-25T02:13:40;9.30;99.90
22678;DHT22;26259;50.214;18.620;2023-04-25T02:16:05;9.20;99.90
22678;DHT22;26259;50.214;18.620;2023-04-25T02:18:31;9.20;99.90
22678;DHT22;26259;50.214;18.620;2023-04-25T02:20:59;9.20;99.90
22678;DHT22;26259;50.214;18.620;2023-04-25T02:23:25;9.20;99.90
22678;DHT22;26259;50.214;18.620;2023-04-25T02:25:50;9.10;99.90
22678;DHT22;26259;50.214;18.620;2023-04-25T02:28:16;9.10;99.90
22678;DHT22;26259;50.214;18.620;2023-04-25T02:30:42;9.10;99.90
22678;DHT22;26259;50.214;18.620;2023-04-25T02:33:07;9.10;99.90
22678;DHT22;26259;50.214;18.620;2023-04-25T02:35:33;9.10;99.90
22678;DHT22;26259;50.214;18.620;2023-04-25T02:37:58;9.00;99.90
22678;DHT22;26259;50.214;18.620;2023-04-25T02:40:24;9.10;99.90
22678;DHT22;26259;50.214;18.620;2023-04-25T02:42:50;9.00;99.90
22678;DHT22;26259;50.214;18.620;2023-04-25T02:45:15;8.90;99.90
22678;DHT22;26259;50.214;18.620;2023-04-25T02:47:41;8.90;99.90
22678;DHT22;26259;50.214;18.620;2023-04-25T02:50:07;8.90;99.90
22678;DHT22;26259;50.214;18.620;2023-04-25T02:52:32;8.90;99.90
22678;DHT22;26259;50.214;18.620;2023-04-25T02:54:58;8.90;99.90
22678;DHT22;26259;50.214;18.620;2023-04-25T02:57:23;8.80;99.90
22678;DHT22;26259;50.214;18.620;2023-04-25T02:59:49;8.80;99.90
22678;DHT22;26259;50.214;18.620;2023-04-25T03:02:14;8.80;99.90
22678;DHT22;26259;50.214;18.620;2023-04-25T03:04:40;8.80;99.90
22678;DHT22;26259;50.214;18.620;2023-04-25T03:07:05;8.80;99.90
22678;DHT22;26259;50.214;18.620;2023-04-25T03:09:31;8.80;99.90
22678;DHT22;26259;50.214;18.620;2023-04-25T03:11:57;8.80;99.90
22678;DHT22;26259;50.214;18.620;2023-04-25T03:14:22;8.80;99.90
22678;DHT22;26259;50.214;18.620;2023-04-25T03:16:48;8.80;99.90
22678;DHT22;26259;50.214;18.620;2023-04-25T03:19:13;8.70;99.90
22678;DHT22;26259;50.214;18.620;2023-04-25T03:21:41;8.70;99.90
22678;DHT22;26259;50.214;18.620;2023-04-25T03:24:07;8.70;99.90
22678;DHT22;26259;50.214;18.620;2023-04-25T03:26:32;8.70;99.90
22678;DHT22;26259;50.214;18.620;2023-04-25T03:28:58;8.70;99.90
22678;DHT22;26259;50.214;18.620;2023-04-25T03:31:23;8.70;99.90
22678;DHT22;26259;50.214;18.620;2023-04-25T03:33:49;8.70;99.90
22678;DHT22;26259;50.214;18.620;2023-04-25T03:36:14;8.70;99.90
22678;DHT22;26259;50.214;18.620;2023-04-25T03:38:40;8.70;99.90
22678;DHT22;26259;50.214;18.620;2023-04-25T03:41:08;8.70;99.90
22678;DHT22;26259;50.214;18.620;2023-04-25T03:43:34;8.70;99.90
22678;DHT22;26259;50.214;18.620;2023-04-25T03:46:00;8.70;99.90
22678;DHT22;26259;50.214;18.620;2023-04-25T03:48:26;8.70;99.90
22678;DHT22;26259;50.214;18.620;2023-04-25T03:50:52;8.60;99.90
22678;DHT22;26259;50.214;18.620;2023-04-25T03:53:18;8.70;99.90
22678;DHT22;26259;50.214;18.620;2023-04-25T03:55:43;8.60;99.90
22678;DHT22;26259;50.214;18.620;2023-04-25T03:58:09;8.70;99.90
22678;DHT22;26259;50.214;18.620;2023-04-25T04:00:35;8.70;99.90
22678;DHT22;26259;50.214;18.620;2023-04-25T04:03:01;8.70;99.90
22678;DHT22;26259;50.214;18.620;2023-04-25T04:05:27;8.70;99.90
22678;DHT22;26259;50.214;18.620;2023-04-25T04:07:54;8.70;99.90
22678;DHT22;26259;50.214;18.620;2023-04-25T04:10:19;8.70;99.90
22678;DHT22;26259;50.214;18.620;2023-04-25T04:12:45;8.70;99.90
22678;DHT22;26259;50.214;18.620;2023-04-25T04:15:11;8.70;99.90
22678;DHT22;26259;50.214;18.620;2023-04-25T04:17:37;8.70;99.90
22678;DHT22;26259;50.214;18.620;2023-04-25T04:20:03;8.80;99.90
22678;DHT22;26259;50.214;18.620;2023-04-25T04:22:29;8.80;99.90
22678;DHT22;26259;50.214;18.620;2023-04-25T04:24:55;8.90;99.90
22678;DHT22;26259;50.214;18.620;2023-04-25T04:27:22;8.90;99.90
22678;DHT22;26259;50.214;18.620;2023-04-25T04:29:48;8.90;99.90
22678;DHT22;26259;50.214;18.620;2023-04-25T04:32:15;9.00;99.90
22678;DHT22;26259;50.214;18.620;2023-04-25T04:34:41;9.00;99.90
22678;DHT22;26259;50.214;18.620;2023-04-25T04:37:07;9.10;99.90
22678;DHT22;26259;50.214;18.620;2023-04-25T04:39:36;9.10;99.90
22678;DHT22;26259;50.214;18.620;2023-04-25T04:42:01;9.10;99.90
22678;DHT22;26259;50.214;18.620;2023-04-25T04:44:29;9.10;99.90
22678;DHT22;26259;50.214;18.620;2023-04-25T04:46:54;9.10;99.90
22678;DHT22;26259;50.214;18.620;2023-04-25T04:49:20;9.20;99.90
22678;DHT22;26259;50.214;18.620;2023-04-25T04:51:46;9.20;99.90
22678;DHT22;26259;50.214;18.620;2023-04-25T04:54:12;9.30;99.90
22678;DHT22;26259;50.214;18.620;2023-04-25T04:56:38;9.30;99.90
22678;DHT22;26259;50.214;18.620;2023-04-25T04:59:04;9.40;99.90
22678;DHT22;26259;50.214;18.620;2023-04-25T05:01:29;9.50;99.90
22678;DHT22;26259;50.214;18.620;2023-04-25T05:03:58;9.60;99.90
22678;DHT22;26259;50.214;18.620;2023-04-25T05:06:27;9.70;99.90
22678;DHT22;26259;50.214;18.620;2023-04-25T05:08:55;9.70;99.90
22678;DHT22;26259;50.214;18.620;2023-04-25T05:11:21;9.70;99.90
22678;DHT22;26259;50.214;18.620;2023-04-25T05:13:46;9.70;99.90
22678;DHT22;26259;50.214;18.620;2023-04-25T05:16:13;9.60;99.90
22678;DHT22;26259;50.214;18.620;2023-04-25T05:18:39;9.70;99.90
22678;DHT22;26259;50.214;18.620;2023-04-25T05:21:05;9.70;99.90
22678;DHT22;26259;50.214;18.620;2023-04-25T05:23:32;9.70;99.90
22678;DHT22;26259;50.214;18.620;2023-04-25T05:25:58;9.70;99.90
22678;DHT22;26259;50.214;18.620;2023-04-25T05:28:23;9.70;99.90
22678;DHT22;26259;50.214;18.620;2023-04-25T05:30:49;9.70;99.90
22678;DHT22;26259;50.214;18.620;2023-04-25T05:33:15;9.70;99.90
22678;DHT22;26259;50.214;18.620;2023-04-25T05:35:41;9.70;99.90
22678;DHT22;26259;50.214;18.620;2023-04-25T05:38:06;9.80;99.90
22678;DHT22;26259;50.214;18.620;2023-04-25T05:40:32;9.80;99.90
22678;DHT22;26259;50.214;18.620;2023-04-25T05:42:57;9.80;99.90
22678;DHT22;26259;50.214;18.620;2023-04-25T05:45:23;9.90;99.90
22678;DHT22;26259;50.214;18.620;2023-04-25T05:47:48;9.90;99.90
22678;DHT22;26259;50.214;18.620;2023-04-25T05:50:14;9.90;99.90
22678;DHT22;26259;50.214;18.620;2023-04-25T05:52:39;9.90;99.90
22678;DHT22;26259;50.214;18.620;2023-04-25T05:55:05;9.80;99.90
22678;DHT22;26259;50.214;18.620;2023-04-25T05:57:31;9.80;99.90
22678;DHT22;26259;50.214;18.620;2023-04-25T05:59:57;9.80;99.90
22678;DHT22;26259;50.214;18.620;2023-04-25T06:02:23;9.80;99.90
22678;DHT22;26259;50.214;18.620;2023-04-25T06:04:51;9.70;99.90
22678;DHT22;26259;50.214;18.620;2023-04-25T06:07:18;9.70;99.90
22678;DHT22;26259;50.214;18.620;2023-04-25T06:09:44;9.80;99.90
22678;DHT22;26259;50.214;18.620;2023-04-25T06:12:10;9.70;99.90
22678;DHT22;26259;50.214;18.620;2023-04-25T06:14:35;9.80;99.90
22678;DHT22;26259;50.214;18.620;2023-04-25T06:17:02;9.80;99.90
22678;DHT22;26259;50.214;18.620;2023-04-25T06:19:32;9.90;99.90
22678;DHT22;26259;50.214;18.620;2023-04-25T06:21:58;9.90;99.90
22678;DHT22;26259;50.214;18.620;2023-04-25T06:24:24;10.00;99.90
22678;DHT22;26259;50.214;18.620;2023-04-25T06:26:49;10.00;99.90
22678;DHT22;26259;50.214;18.620;2023-04-25T06:29:15;10.10;99.90
22678;DHT22;26259;50.214;18.620;2023-04-25T06:31:40;10.20;99.90
22678;DHT22;26259;50.214;18.620;2023-04-25T06:34:06;10.30;99.90
22678;DHT22;26259;50.214;18.620;2023-04-25T06:36:31;10.40;99.90
22678;DHT22;26259;50.214;18.620;2023-04-25T06:38:57;10.40;99.90
22678;DHT22;26259;50.214;18.620;2023-04-25T06:41:22;10.40;99.90
22678;DHT22;26259;50.214;18.620;2023-04-25T06:43:48;10.40;99.90
22678;DHT22;26259;50.214;18.620;2023-04-25T06:46:13;10.50;99.90
22678;DHT22;26259;50.214;18.620;2023-04-25T06:48:39;10.70;99.90
22678;DHT22;26259;50.214;18.620;2023-04-25T06:51:04;10.70;99.90
22678;DHT22;26259;50.214;18.620;2023-04-25T06:53:30;10.80;99.90
22678;DHT22;26259;50.214;18.620;2023-04-25T06:55:56;11.00;99.90
22678;DHT22;26259;50.214;18.620;2023-04-25T06:58:21;11.00;99.90
22678;DHT22;26259;50.214;18.620;2023-04-25T07:00:47;11.10;99.90
22678;DHT22;26259;50.214;18.620;2023-04-25T07:03:13;11.10;99.90
22678;DHT22;26259;50.214;18.620;2023-04-25T07:05:38;11.00;99.90
22678;DHT22;26259;50.214;18.620;2023-04-25T07:08:05;10.80;99.90
22678;DHT22;26259;50.214;18.620;2023-04-25T07:10:30;10.70;99.90
22678;DHT22;26259;50.214;18.620;2023-04-25T07:12:56;10.80;99.90
22678;DHT22;26259;50.214;18.620;2023-04-25T07:15:21;10.80;99.90
22678;DHT22;26259;50.214;18.620;2023-04-25T07:17:47;10.80;99.90
22678;DHT22;26259;50.214;18.620;2023-04-25T07:20:12;10.80;99.90
22678;DHT22;26259;50.214;18.620;2023-04-25T07:22:39;10.80;99.90
22678;DHT22;26259;50.214;18.620;2023-04-25T07:25:05;10.90;99.90
22678;DHT22;26259;50.214;18.620;2023-04-25T07:27:31;11.00;99.90
22678;DHT22;26259;50.214;18.620;2023-04-25T07:29:57;11.10;99.90
22678;DHT22;26259;50.214;18.620;2023-04-25T07:32:22;11.20;99.90
22678;DHT22;26259;50.214;18.620;2023-04-25T07:34:48;11.30;99.90
22678;DHT22;26259;50.214;18.620;2023-04-25T07:37:14;11.50;99.90
22678;DHT22;26259;50.214;18.620;2023-04-25T07:39:40;11.80;99.90
22678;DHT22;26259;50.214;18.620;2023-04-25T07:42:05;12.10;99.90
22678;DHT22;26259;50.214;18.620;2023-04-25T07:44:33;12.20;99.90
22678;DHT22;26259;50.214;18.620;2023-04-25T07:47:04;12.40;99.90
22678;DHT22;26259;50.214;18.620;2023-04-25T07:49:32;12.20;99.90
22678;DHT22;26259;50.214;18.620;2023-04-25T07:51:58;12.30;99.90
22678;DHT22;26259;50.214;18.620;2023-04-25T07:54:24;12.30;99.90
22678;DHT22;26259;50.214;18.620;2023-04-25T07:56:50;12.30;99.90
22678;DHT22;26259;50.214;18.620;2023-04-25T07:59:16;12.20;99.90
22678;DHT22;26259;50.214;18.620;2023-04-25T08:01:41;12.20;99.90
22678;DHT22;26259;50.214;18.620;2023-04-25T08:04:07;12.10;99.90
22678;DHT22;26259;50.214;18.620;2023-04-25T08:06:32;12.10;99.90
22678;DHT22;26259;50.214;18.620;2023-04-25T08:08:58;12.20;99.90
22678;DHT22;26259;50.214;18.620;2023-04-25T08:11:23;12.30;99.90
22678;DHT22;26259;50.214;18.620;2023-04-25T08:13:49;12.20;99.90
22678;DHT22;26259;50.214;18.620;2023-04-25T08:16:14;12.20;99.90
22678;DHT22;26259;50.214;18.620;2023-04-25T08:18:41;12.40;99.90
22678;DHT22;26259;50.214;18.620;2023-04-25T08:21:06;12.70;99.90
22678;DHT22;26259;50.214;18.620;2023-04-25T08:23:34;13.00;99.90
22678;DHT22;26259;50.214;18.620;2023-04-25T08:25:59;13.10;99.90
22678;DHT22;26259;50.214;18.620;2023-04-25T08:28:25;12.80;99.90
22678;DHT22;26259;50.214;18.620;2023-04-25T08:30:51;12.70;99.90
22678;DHT22;26259;50.214;18.620;2023-04-25T08:33:16;12.50;99.90
22678;DHT22;26259;50.214;18.620;2023-04-25T08:35:42;12.50;99.90
22678;DHT22;26259;50.214;18.620;2023-04-25T08:38:08;12.80;99.90
22678;DHT22;26259;50.214;18.620;2023-04-25T08:40:37;12.80;99.90
22678;DHT22;26259;50.214;18.620;2023-04-25T08:43:03;12.70;99.90
22678;DHT22;26259;50.214;18.620;2023-04-25T08:45:32;12.80;99.90
22678;DHT22;26259;50.214;18.620;2023-04-25T08:47:58;12.90;99.90
22678;DHT22;26259;50.214;18.620;2023-04-25T08:50:24;12.90;99.90
22678;DHT22;26259;50.214;18.620;2023-04-25T08:52:53;12.50;99.90
22678;DHT22;26259;50.214;18.620;2023-04-25T08:55:21;12.50;99.90
22678;DHT22;26259;50.214;18.620;2023-04-25T08:57:47;12.60;99.90
22678;DHT22;26259;50.214;18.620;2023-04-25T09:00:13;12.50;99.90
22678;DHT22;26259;50.214;18.620;2023-04-25T09:02:39;12.60;99.90
22678;DHT22;26259;50.214;18.620;2023-04-25T09:05:06;12.80;99.90
22678;DHT22;26259;50.214;18.620;2023-04-25T09:07:32;13.10;99.90
22678;DHT22;26259;50.214;18.620;2023-04-25T09:09:58;13.50;99.90
22678;DHT22;26259;50.214;18.620;2023-04-25T09:12:27;13.60;99.90
22678;DHT22;26259;50.214;18.620;2023-04-25T09:15:13;13.90;98.10
22678;DHT22;26259;50.214;18.620;2023-04-25T09:17:41;13.90;98.10
22678;DHT22;26259;50.214;18.620;2023-04-25T09:20:12;13.80;99.90
22678;DHT22;26259;50.214;18.620;2023-04-25T09:22:38;13.60;99.90
22678;DHT22;26259;50.214;18.620;2023-04-25T09:25:11;13.60;99.90
22678;DHT22;26259;50.214;18.620;2023-04-25T09:27:49;13.60;97.20
22678;DHT22;26259;50.214;18.620;2023-04-25T09:30:16;13.80;97.80
22678;DHT22;26259;50.214;18.620;2023-04-25T09:32:43;14.00;98.70
22678;DHT22;26259;50.214;18.620;2023-04-25T09:35:09;14.10;94.20
22678;DHT22;26259;50.214;18.620;2023-04-25T09:37:34;13.90;93.90
22678;DHT22;26259;50.214;18.620;2023-04-25T09:40:05;13.60;96.40
22678;DHT22;26259;50.214;18.620;2023-04-25T09:42:31;13.40;95.10
22678;DHT22;26259;50.214;18.620;2023-04-25T09:44:58;13.40;99.90
22678;DHT22;26259;50.214;18.620;2023-04-25T09:47:25;13.50;98.40
22678;DHT22;26259;50.214;18.620;2023-04-25T09:49:52;13.60;99.30
22678;DHT22;26259;50.214;18.620;2023-04-25T09:52:23;13.70;93.40
22678;DHT22;26259;50.214;18.620;2023-04-25T09:54:50;13.90;98.00
22678;DHT22;26259;50.214;18.620;2023-04-25T09:57:20;13.80;96.90
22678;DHT22;26259;50.214;18.620;2023-04-25T09:59:51;13.90;97.30
22678;DHT22;26259;50.214;18.620;2023-04-25T10:02:19;13.70;99.00
22678;DHT22;26259;50.214;18.620;2023-04-25T10:04:49;13.60;99.90
22678;DHT22;26259;50.214;18.620;2023-04-25T10:07:16;13.60;98.10
22678;DHT22;26259;50.214;18.620;2023-04-25T10:09:43;13.60;99.90
22678;DHT22;26259;50.214;18.620;2023-04-25T10:12:11;13.50;92.30
22678;DHT22;26259;50.214;18.620;2023-04-25T10:14:36;13.40;92.20
22678;DHT22;26259;50.214;18.620;2023-04-25T10:17:03;13.50;94.50
22678;DHT22;26259;50.214;18.620;2023-04-25T10:19:29;13.60;95.10
22678;DHT22;26259;50.214;18.620;2023-04-25T10:24:30;13.90;93.80
22678;DHT22;26259;50.214;18.620;2023-04-25T10:26:56;13.90;89.80
22678;DHT22;26259;50.214;18.620;2023-04-25T10:29:26;14.20;93.30
22678;DHT22;26259;50.214;18.620;2023-04-25T10:31:51;14.40;78.80
22678;DHT22;26259;50.214;18.620;2023-04-25T10:34:18;14.10;83.80
22678;DHT22;26259;50.214;18.620;2023-04-25T10:36:49;13.80;89.90
22678;DHT22;26259;50.214;18.620;2023-04-25T10:39:22;13.80;92.60
22678;DHT22;26259;50.214;18.620;2023-04-25T10:41:56;13.90;93.20
22678;DHT22;26259;50.214;18.620;2023-04-25T10:44:26;13.70;94.10
22678;DHT22;26259;50.214;18.620;2023-04-25T10:46:52;13.60;93.90
22678;DHT22;26259;50.214;18.620;2023-04-25T10:49:42;13.70;96.50
22678;DHT22;26259;50.214;18.620;2023-04-25T10:52:26;13.90;86.90
22678;DHT22;26259;50.214;18.620;2023-04-25T10:54:57;13.80;89.40
22678;DHT22;26259;50.214;18.620;2023-04-25T10:57:42;13.80;82.50
22678;DHT22;26259;50.214;18.620;2023-04-25T11:00:10;13.60;92.90
22678;DHT22;26259;50.214;18.620;2023-04-25T11:02:40;13.60;88.80
22678;DHT22;26259;50.214;18.620;2023-04-25T11:05:06;13.60;85.70
22678;DHT22;26259;50.214;18.620;2023-04-25T11:07:45;13.50;87.00
22678;DHT22;26259;50.214;18.620;2023-04-25T11:10:14;13.30;90.00
22678;DHT22;26259;50.214;18.620;2023-04-25T11:12:39;13.10;91.10
22678;DHT22;26259;50.214;18.620;2023-04-25T11:15:06;13.10;90.80
22678;DHT22;26259;50.214;18.620;2023-04-25T11:17:33;13.20;94.80
22678;DHT22;26259;50.214;18.620;2023-04-25T11:19:59;13.30;92.30
22678;DHT22;26259;50.214;18.620;2023-04-25T11:22:27;12.90;89.90
22678;DHT22;26259;50.214;18.620;2023-04-25T11:24:53;12.80;92.70
22678;DHT22;26259;50.214;18.620;2023-04-25T11:27:18;12.90;91.80
22678;DHT22;26259;50.214;18.620;2023-04-25T11:29:44;13.00;92.80
22678;DHT22;26259;50.214;18.620;2023-04-25T11:32:10;13.10;95.50
22678;DHT22;26259;50.214;18.620;2023-04-25T11:34:35;13.20;91.00
22678;DHT22;26259;50.214;18.620;2023-04-25T11:37:02;13.20;92.70
22678;DHT22;26259;50.214;18.620;2023-04-25T11:39:28;13.10;84.20
22678;DHT22;26259;50.214;18.620;2023-04-25T11:41:54;13.10;91.50
22678;DHT22;26259;50.214;18.620;2023-04-25T11:44:21;13.20;93.10
22678;DHT22;26259;50.214;18.620;2023-04-25T11:46:47;13.20;93.10
22678;DHT22;26259;50.214;18.620;2023-04-25T11:49:14;13.40;95.70
22678;DHT22;26259;50.214;18.620;2023-04-25T11:51:46;13.20;92.60
22678;DHT22;26259;50.214;18.620;2023-04-25T11:54:13;13.00;92.10
22678;DHT22;26259;50.214;18.620;2023-04-25T11:56:45;13.00;99.90
22678;DHT22;26259;50.214;18.620;2023-04-25T11:59:11;13.00;96.30
22678;DHT22;26259;50.214;18.620;2023-04-25T12:01:40;12.90;96.70
22678;DHT22;26259;50.214;18.620;2023-04-25T12:04:23;12.80;97.70
22678;DHT22;26259;50.214;18.620;2023-04-25T12:06:53;12.70;95.50
22678;DHT22;26259;50.214;18.620;2023-04-25T12:09:32;12.60;96.40
22678;DHT22;26259;50.214;18.620;2023-04-25T12:11:59;12.70;96.60
22678;DHT22;26259;50.214;18.620;2023-04-25T12:14:29;12.70;99.90
22678;DHT22;26259;50.214;18.620;2023-04-25T12:17:00;12.70;97.40
22678;DHT22;26259;50.214;18.620;2023-04-25T12:19:31;12.70;98.10
22678;DHT22;26259;50.214;18.620;2023-04-25T12:21:58;12.60;97.80
22678;DHT22;26259;50.214;18.620;2023-04-25T12:24:26;12.80;99.50
22678;DHT22;26259;50.214;18.620;2023-04-25T12:29:19;12.80;96.30
22678;DHT22;26259;50.214;18.620;2023-04-25T12:31:45;12.70;98.10
22678;DHT22;26259;50.214;18.620;2023-04-25T12:34:19;12.80;97.90
22678;DHT22;26259;50.214;18.620;2023-04-25T12:36:44;12.80;95.00
22678;DHT22;26259;50.214;18.620;2023-04-25T12:39:17;12.80;96.60
22678;DHT22;26259;50.214;18.620;2023-04-25T12:41:43;12.90;95.30
22678;DHT22;26259;50.214;18.620;2023-04-25T12:44:09;12.90;95.60
22678;DHT22;26259;50.214;18.620;2023-04-25T12:46:36;12.80;96.90
22678;DHT22;26259;50.214;18.620;2023-04-25T12:49:01;12.90;98.10
22678;DHT22;26259;50.214;18.620;2023-04-25T12:51:28;13.10;97.60
22678;DHT22;26259;50.214;18.620;2023-04-25T12:53:54;13.30;95.90
22678;DHT22;26259;50.214;18.620;2023-04-25T12:56:20;13.30;96.40
22678;DHT22;26259;50.214;18.620;2023-04-25T12:58:46;13.40;99.70
22678;DHT22;26259;50.214;18.620;2023-04-25T13:01:13;13.70;95.40
22678;DHT22;26259;50.214;18.620;2023-04-25T13:03:39;13.80;93.30
22678;DHT22;26259;50.214;18.620;2023-04-25T13:06:06;13.70;91.20
22678;DHT22;26259;50.214;18.620;2023-04-25T13:08:32;13.70;91.80
22678;DHT22;26259;50.214;18.620;2023-04-25T13:10:58;13.80;97.00
22678;DHT22;26259;50.214;18.620;2023-04-25T13:13:23;14.00;90.50
22678;DHT22;26259;50.214;18.620;2023-04-25T13:15:49;14.00;90.00
22678;DHT22;26259;50.214;18.620;2023-04-25T13:18:15;14.10;93.60
22678;DHT22;26259;50.214;18.620;2023-04-25T13:20:40;14.30;85.10
22678;DHT22;26259;50.214;18.620;2023-04-25T13:23:06;14.50;81.30
22678;DHT22;26259;50.214;18.620;2023-04-25T13:25:32;14.50;74.80
22678;DHT22;26259;50.214;18.620;2023-04-25T13:27:57;14.30;84.70
22678;DHT22;26259;50.214;18.620;2023-04-25T13:30:23;14.30;84.70
22678;DHT22;26259;50.214;18.620;2023-04-25T13:32:48;13.90;87.10
22678;DHT22;26259;50.214;18.620;2023-04-25T13:35:14;13.70;87.80
22678;DHT22;26259;50.214;18.620;2023-04-25T13:37:40;13.70;88.70
22678;DHT22;26259;50.214;18.620;2023-04-25T13:40:08;13.70;89.00
22678;DHT22;26259;50.214;18.620;2023-04-25T13:42:36;13.80;91.60
22678;DHT22;26259;50.214;18.620;2023-04-25T13:45:02;14.00;84.30
22678;DHT22;26259;50.214;18.620;2023-04-25T13:47:28;14.20;90.30
22678;DHT22;26259;50.214;18.620;2023-04-25T13:49:53;14.50;83.90
22678;DHT22;26259;50.214;18.620;2023-04-25T13:52:19;14.80;85.80
22678;DHT22;26259;50.214;18.620;2023-04-25T13:54:45;14.50;78.70
22678;DHT22;26259;50.214;18.620;2023-04-25T13:57:11;14.50;91.40
22678;DHT22;26259;50.214;18.620;2023-04-25T13:59:37;14.50;86.50
22678;DHT22;26259;50.214;18.620;2023-04-25T14:02:03;14.30;80.40
22678;DHT22;26259;50.214;18.620;2023-04-25T14:04:29;14.20;91.50
22678;DHT22;26259;50.214;18.620;2023-04-25T14:06:55;14.10;92.90
22678;DHT22;26259;50.214;18.620;2023-04-25T14:09:20;13.90;93.50
22678;DHT22;26259;50.214;18.620;2023-04-25T14:11:51;13.50;94.50
22678;DHT22;26259;50.214;18.620;2023-04-25T14:14:16;13.30;94.80
22678;DHT22;26259;50.214;18.620;2023-04-25T14:16:42;13.10;97.90
22678;DHT22;26259;50.214;18.620;2023-04-25T14:19:08;13.00;99.30
22678;DHT22;26259;50.214;18.620;2023-04-25T14:21:33;13.10;99.50
22678;DHT22;26259;50.214;18.620;2023-04-25T14:23:59;13.20;98.80
22678;DHT22;26259;50.214;18.620;2023-04-25T14:26:24;13.30;99.50
22678;DHT22;26259;50.214;18.620;2023-04-25T14:28:51;13.50;99.20
22678;DHT22;26259;50.214;18.620;2023-04-25T14:31:17;13.70;98.60
22678;DHT22;26259;50.214;18.620;2023-04-25T14:33:42;13.80;92.60
22678;DHT22;26259;50.214;18.620;2023-04-25T14:36:08;13.80;93.10
22678;DHT22;26259;50.214;18.620;2023-04-25T14:38:34;13.90;87.80
22678;DHT22;26259;50.214;18.620;2023-04-25T14:41:00;13.90;91.90
22678;DHT22;26259;50.214;18.620;2023-04-25T14:43:25;14.00;88.10
22678;DHT22;26259;50.214;18.620;2023-04-25T14:45:51;14.20;88.40
22678;DHT22;26259;50.214;18.620;2023-04-25T14:48:18;14.20;88.60
22678;DHT22;26259;50.214;18.620;2023-04-25T14:50:45;14.30;88.50
22678;DHT22;26259;50.214;18.620;2023-04-25T14:53:10;14.50;87.70
22678;DHT22;26259;50.214;18.620;2023-04-25T14:55:37;14.40;88.10
22678;DHT22;26259;50.214;18.620;2023-04-25T14:58:03;14.30;92.50
22678;DHT22;26259;50.214;18.620;2023-04-25T15:00:28;14.20;93.00
22678;DHT22;26259;50.214;18.620;2023-04-25T15:02:56;14.00;93.40
22678;DHT22;26259;50.214;18.620;2023-04-25T15:05:22;13.90;94.70
22678;DHT22;26259;50.214;18.620;2023-04-25T15:07:47;13.80;93.90
22678;DHT22;26259;50.214;18.620;2023-04-25T15:10:13;13.70;95.20
22678;DHT22;26259;50.214;18.620;2023-04-25T15:12:42;13.70;93.20
22678;DHT22;26259;50.214;18.620;2023-04-25T15:15:08;13.60;93.00
22678;DHT22;26259;50.214;18.620;2023-04-25T15:17:41;13.50;92.50
22678;DHT22;26259;50.214;18.620;2023-04-25T15:20:11;13.40;93.00
22678;DHT22;26259;50.214;18.620;2023-04-25T15:22:42;13.50;95.60